createdAt,value
2023-04-15T00:02:20.044Z,10.23
2023-04-15T00:04:47.718Z,14.50
2023-04-15T00:07:16.344Z,10.07
2023-04-15T00:09:44.853Z,8.10
2023-04-15T00:12:12.472Z,11.93
2023-04-15T00:14:40.094Z,11.73
2023-04-15T00:17:07.363Z,8.60
2023-04-15T00:19:34.706Z,10.10
2023-04-15T00:22:02.041Z,10.07
2023-04-15T00:24:29.396Z,10.85
2023-04-15T00:26:56.588Z,10.07
2023-04-15T00:29:24.041Z,8.75
2023-04-15T00:31:51.193Z,11.07
2023-04-15T00:34:18.534Z,11.65
2023-04-15T00:36:45.797Z,15.52
2023-04-15T00:39:12.951Z,10.68
2023-04-15T00:41:40.088Z,16.20
2023-04-15T00:44:07.722Z,17.08
2023-04-15T00:46:37.831Z,14.15
2023-04-15T00:49:06.207Z,13.77
2023-04-15T00:51:36.075Z,14.77
2023-04-15T00:54:04.456Z,15.38
2023-04-15T00:56:32.063Z,14.13
2023-04-15T00:59:00.167Z,15.95
2023-04-15T01:01:27.714Z,15.18
2023-04-15T01:03:56.345Z,14.20
2023-04-15T01:06:23.659Z,14.02
2023-04-15T01:08:51.023Z,16.42
2023-04-15T01:11:18.457Z,12.13
2023-04-15T01:13:45.632Z,11.05
2023-04-15T01:16:13.282Z,12.70
2023-04-15T01:18:40.798Z,16.63
2023-04-15T01:21:07.971Z,12.27
2023-04-15T01:23:37.886Z,11.38
2023-04-15T01:26:05.413Z,13.02
2023-04-15T01:28:33.002Z,13.52
2023-04-15T01:31:10.025Z,9.75
2023-04-15T01:33:37.920Z,10.13
2023-04-15T01:36:06.231Z,7.95
2023-04-15T01:38:33.909Z,12.40
2023-04-15T01:41:01.443Z,13.77
2023-04-15T01:43:29.105Z,10.48
2023-04-15T01:45:56.587Z,12.15
2023-04-15T01:48:24.166Z,12.30
2023-04-15T01:50:51.884Z,12.50
2023-04-15T01:53:19.169Z,12.93
2023-04-15T01:55:46.860Z,10.10
2023-04-15T01:58:14.041Z,11.13
2023-04-15T02:00:41.711Z,12.18
2023-04-15T02:03:08.962Z,11.80
2023-04-15T02:05:36.598Z,11.32
2023-04-15T02:08:03.899Z,10.85
2023-04-15T02:10:31.224Z,10.98
2023-04-15T02:12:58.420Z,9.63
2023-04-15T02:15:25.989Z,11.55
2023-04-15T02:21:15.413Z,14.48
2023-04-15T02:23:44.017Z,11.18
2023-04-15T02:26:12.069Z,11.18
2023-04-15T02:28:39.246Z,15.05
2023-04-15T02:31:07.073Z,16.63
2023-04-15T02:33:34.441Z,8.93
2023-04-15T02:36:01.745Z,11.90
2023-04-15T02:38:29.157Z,10.68
2023-04-15T02:40:57.218Z,10.90
2023-04-15T02:43:24.366Z,12.75
2023-04-15T02:45:52.285Z,11.55
2023-04-15T02:48:20.437Z,10.05
2023-04-15T02:50:48.262Z,11.98
2023-04-15T02:53:15.585Z,11.80
2023-04-15T02:55:43.019Z,10.80
2023-04-15T02:58:10.245Z,11.75
2023-04-15T03:00:37.835Z,11.55
2023-04-15T03:03:06.319Z,10.60
2023-04-15T03:05:33.764Z,8.77
2023-04-15T03:08:01.354Z,16.63
2023-04-15T03:10:28.761Z,8.95
2023-04-15T03:12:55.920Z,11.05
2023-04-15T03:15:23.319Z,9.55
2023-04-15T03:17:50.676Z,12.85
2023-04-15T03:20:17.984Z,8.80
2023-04-15T03:22:45.460Z,11.30
2023-04-15T03:25:12.629Z,12.15
2023-04-15T03:27:39.912Z,12.20
2023-04-15T03:30:07.770Z,12.15
2023-04-15T03:32:35.649Z,11.63
2023-04-15T03:35:02.846Z,9.57
2023-04-15T03:37:29.956Z,10.65
2023-04-15T03:39:57.300Z,9.13
2023-04-15T03:42:24.537Z,10.32
2023-04-15T03:44:52.286Z,7.28
2023-04-15T03:47:19.435Z,11.65
2023-04-15T03:49:46.751Z,11.27
2023-04-15T03:52:13.908Z,10.77
2023-04-15T03:54:40.988Z,11.80
2023-04-15T03:57:08.146Z,12.50
2023-04-15T03:59:35.505Z,13.25
2023-04-15T04:02:02.825Z,12.48
2023-04-15T04:04:30.436Z,9.70
2023-04-15T04:06:57.675Z,12.40
2023-04-15T04:09:25.112Z,13.93
2023-04-15T04:11:52.231Z,12.50
2023-04-15T04:14:19.370Z,7.28
2023-04-15T04:16:46.720Z,11.88
2023-04-15T04:19:14.969Z,9.02
2023-04-15T04:21:42.146Z,15.18
2023-04-15T04:24:09.286Z,11.02
2023-04-15T04:26:36.498Z,12.07
2023-04-15T04:29:04.175Z,10.57
2023-04-15T04:31:31.531Z,10.57
2023-04-15T04:33:58.702Z,11.20
2023-04-15T04:36:26.535Z,11.57
2023-04-15T04:38:53.740Z,9.65
2023-04-15T04:41:21.117Z,12.68
2023-04-15T04:43:48.272Z,9.95
2023-04-15T04:46:15.578Z,13.88
2023-04-15T04:48:42.879Z,12.50
2023-04-15T04:51:10.264Z,14.60
2023-04-15T04:53:37.829Z,9.95
2023-04-15T04:56:05.122Z,12.50
2023-04-15T04:58:32.327Z,9.70
2023-04-15T05:00:59.522Z,13.00
2023-04-15T05:03:27.558Z,10.48
2023-04-15T05:05:55.229Z,9.30
2023-04-15T05:08:22.361Z,14.05
2023-04-15T05:10:49.532Z,12.98
2023-04-15T05:13:16.702Z,15.18
2023-04-15T05:15:44.961Z,13.60
2023-04-15T05:18:12.288Z,10.98
2023-04-15T05:20:39.631Z,12.90
2023-04-15T05:23:06.945Z,13.77
2023-04-15T05:29:23.700Z,9.82
2023-04-15T05:31:50.848Z,10.18
2023-04-15T05:34:18.005Z,11.38
2023-04-15T05:36:45.340Z,8.45
2023-04-15T05:39:12.867Z,12.32
2023-04-15T05:41:40.098Z,11.88
2023-04-15T05:44:07.228Z,14.57
2023-04-15T05:46:34.462Z,13.30
2023-04-15T05:49:01.901Z,10.45
2023-04-15T05:51:29.170Z,11.55
2023-04-15T05:53:56.353Z,14.85
2023-04-15T05:56:23.550Z,15.95
2023-04-15T05:58:52.451Z,14.77
2023-04-15T06:01:20.930Z,9.68
2023-04-15T06:03:48.843Z,13.35
2023-04-15T06:06:16.271Z,8.82
2023-04-15T06:08:43.423Z,10.27
2023-04-15T06:11:10.856Z,10.60
2023-04-15T06:13:38.169Z,9.73
2023-04-15T06:16:05.543Z,11.80
2023-04-15T06:18:32.811Z,8.98
2023-04-15T06:20:59.982Z,14.25
2023-04-15T06:23:28.036Z,11.77
2023-04-15T06:25:55.422Z,12.07
2023-04-15T06:28:22.548Z,11.05
2023-04-15T06:30:49.784Z,11.57
2023-04-15T06:33:16.980Z,10.30
2023-04-15T06:35:44.082Z,11.65
2023-04-15T06:38:11.428Z,11.40
2023-04-15T06:40:38.658Z,12.07
2023-04-15T06:43:05.817Z,11.85
2023-04-15T06:45:33.201Z,9.90
2023-04-15T06:48:00.709Z,12.50
2023-04-15T06:50:28.000Z,12.73
2023-04-15T06:52:55.569Z,11.77
2023-04-15T06:55:22.785Z,11.48
2023-04-15T06:57:49.889Z,12.68
2023-04-15T07:00:17.701Z,9.77
2023-04-15T07:02:45.464Z,10.95
2023-04-15T07:05:12.815Z,10.40
2023-04-15T07:07:39.995Z,11.48
2023-04-15T07:10:07.541Z,12.40
2023-04-15T07:12:35.868Z,10.35
2023-04-15T07:15:03.612Z,10.55
2023-04-15T07:17:30.882Z,10.15
2023-04-15T07:19:58.203Z,13.00
2023-04-15T07:22:26.291Z,12.27
2023-04-15T07:24:53.507Z,10.48
2023-04-15T07:27:20.993Z,11.10
2023-04-15T07:29:49.079Z,9.75
2023-04-15T07:32:16.396Z,12.27
2023-04-15T07:34:44.454Z,11.88
2023-04-15T07:37:11.661Z,14.48
2023-04-15T07:39:38.793Z,9.95
2023-04-15T07:42:05.974Z,12.05
2023-04-15T07:44:33.106Z,7.68
2023-04-15T07:47:00.498Z,9.07
2023-04-15T07:49:27.676Z,8.82
2023-04-15T07:51:55.049Z,9.00
2023-04-15T07:54:22.463Z,8.07
2023-04-15T07:56:49.580Z,10.85
2023-04-15T07:59:18.055Z,7.85
2023-04-15T08:04:12.490Z,9.05
2023-04-15T08:06:40.109Z,10.45
2023-04-15T08:09:08.273Z,7.05
2023-04-15T08:11:36.598Z,11.60
2023-04-15T08:14:03.802Z,7.35
2023-04-15T08:16:31.094Z,7.55
2023-04-15T08:18:58.620Z,8.48
2023-04-15T08:21:26.025Z,6.82
2023-04-15T08:23:53.662Z,9.40
2023-04-15T08:26:21.315Z,8.52
2023-04-15T08:28:49.060Z,7.03
2023-04-15T08:31:17.406Z,5.53
2023-04-15T08:33:44.794Z,10.30
2023-04-15T08:36:12.216Z,7.88
2023-04-15T08:38:39.420Z,8.95
2023-04-15T08:41:34.477Z,6.90
2023-04-15T08:44:05.857Z,7.00
2023-04-15T08:46:36.489Z,5.50
2023-04-15T08:49:10.014Z,5.97
2023-04-15T08:51:37.616Z,5.68
2023-04-15T08:54:05.471Z,3.72
2023-04-15T08:56:33.253Z,5.68
2023-04-15T08:59:00.972Z,7.43
2023-04-15T09:01:28.552Z,5.00
2023-04-15T09:03:57.247Z,5.25
2023-04-15T09:06:24.566Z,5.47
2023-04-15T09:08:51.977Z,5.05
2023-04-15T09:11:20.382Z,4.07
2023-04-15T09:13:47.699Z,7.00
2023-04-15T09:16:52.468Z,5.13
2023-04-15T09:22:42.522Z,4.70
2023-04-15T09:25:25.044Z,5.47
2023-04-15T09:27:52.913Z,6.22
2023-04-15T09:30:20.157Z,4.97
2023-04-15T09:32:54.143Z,9.02
2023-04-15T09:35:22.314Z,7.65
2023-04-15T09:37:52.905Z,5.60
2023-04-15T09:40:43.097Z,3.50
2023-04-15T09:43:14.514Z,4.35
2023-04-15T09:45:48.254Z,3.15
2023-04-15T09:48:22.803Z,6.53
2023-04-15T09:50:51.057Z,3.45
2023-04-15T09:53:19.356Z,3.92
2023-04-15T09:55:47.151Z,5.78
2023-04-15T09:58:41.693Z,4.82
2023-04-15T10:01:11.753Z,5.20
2023-04-15T10:03:42.374Z,4.95
2023-04-15T10:06:09.991Z,4.75
2023-04-15T10:08:37.111Z,4.80
2023-04-15T10:11:04.974Z,6.38
2023-04-15T10:13:37.512Z,7.90
2023-04-15T10:16:07.218Z,5.70
2023-04-15T10:18:36.988Z,5.28
2023-04-15T10:21:05.871Z,6.25
2023-04-15T10:23:33.392Z,4.07
2023-04-15T10:26:01.200Z,4.13
2023-04-15T10:28:28.713Z,7.50
2023-04-15T10:30:56.388Z,4.38
2023-04-15T10:33:24.549Z,5.05
2023-04-15T10:35:52.486Z,5.45
2023-04-15T10:38:37.988Z,5.32
2023-04-15T10:41:14.970Z,5.88
2023-04-15T10:43:49.646Z,6.55
2023-04-15T10:46:20.947Z,4.03
2023-04-15T10:48:52.369Z,5.93
2023-04-15T10:51:29.948Z,4.43
2023-04-15T10:53:58.730Z,5.88
2023-04-15T10:56:26.273Z,4.65
2023-04-15T10:58:53.397Z,3.67
2023-04-15T11:01:23.369Z,5.32
2023-04-15T11:03:51.641Z,4.95
2023-04-15T11:06:19.119Z,5.38
2023-04-15T11:09:02.390Z,5.38
2023-04-15T11:11:48.666Z,6.47
2023-04-15T11:14:16.558Z,4.30
2023-04-15T11:16:47.002Z,3.90
2023-04-15T11:19:14.160Z,4.05
2023-04-15T11:21:41.289Z,5.43
2023-04-15T11:24:08.686Z,5.43
2023-04-15T11:26:36.094Z,4.10
2023-04-15T11:29:03.565Z,4.35
2023-04-15T11:31:31.017Z,4.78
2023-04-15T11:33:59.563Z,5.90
2023-04-15T11:38:54.652Z,3.60
2023-04-15T11:41:24.657Z,7.43
2023-04-15T11:43:52.557Z,4.72
2023-04-15T11:46:20.156Z,2.53
2023-04-15T11:48:47.891Z,3.88
2023-04-15T11:51:15.290Z,2.72
2023-04-15T11:53:48.215Z,3.60
2023-04-15T11:56:23.889Z,3.38
2023-04-15T11:58:58.559Z,3.47
2023-04-15T12:01:36.543Z,2.72
2023-04-15T12:04:04.626Z,6.28
2023-04-15T12:09:05.466Z,2.42
2023-04-15T12:11:36.817Z,4.13
2023-04-15T12:14:08.707Z,4.13
2023-04-15T12:17:03.218Z,2.35
2023-04-15T12:19:34.343Z,6.10
2023-04-15T12:22:05.245Z,2.80
2023-04-15T12:24:33.646Z,2.22
2023-04-15T12:27:11.481Z,3.38
2023-04-15T12:29:39.752Z,2.90
2023-04-15T12:32:08.515Z,4.57
2023-04-15T12:34:37.036Z,2.10
2023-04-15T12:37:05.229Z,1.98
2023-04-15T12:39:33.307Z,2.63
2023-04-15T12:42:00.635Z,1.65
2023-04-15T12:44:28.459Z,8.80
2023-04-15T12:46:56.228Z,3.05
2023-04-15T12:49:24.320Z,4.15
2023-04-15T12:51:53.056Z,2.60
2023-04-15T12:54:20.449Z,2.67
2023-04-15T12:56:51.223Z,2.63
2023-04-15T12:59:19.190Z,4.18
2023-04-15T13:01:50.552Z,3.35
2023-04-15T13:04:20.726Z,2.65
2023-04-15T13:06:48.302Z,4.45
2023-04-15T13:09:15.873Z,5.07
2023-04-15T13:11:43.302Z,3.15
2023-04-15T13:14:14.289Z,1.05
2023-04-15T13:16:41.714Z,2.72
2023-04-15T13:19:09.063Z,2.38
2023-04-15T13:21:36.736Z,5.05
2023-04-15T13:24:05.104Z,5.25
2023-04-15T13:29:00.614Z,2.90
2023-04-15T13:31:46.905Z,2.75
2023-04-15T13:34:14.051Z,4.45
2023-04-15T13:36:42.632Z,3.05
2023-04-15T13:39:09.948Z,2.10
2023-04-15T13:41:37.514Z,1.88
2023-04-15T13:44:06.318Z,3.58
2023-04-15T13:46:33.739Z,1.33
2023-04-15T13:49:01.048Z,2.50
2023-04-15T13:51:28.265Z,4.55
2023-04-15T13:53:55.485Z,4.18
2023-04-15T13:56:22.633Z,3.25
2023-04-15T13:58:49.984Z,2.60
2023-04-15T14:01:17.381Z,2.78
2023-04-15T14:03:44.821Z,4.47
2023-04-15T14:06:12.009Z,3.45
2023-04-15T14:08:39.823Z,3.15
2023-04-15T14:11:07.291Z,5.45
2023-04-15T14:13:34.716Z,3.60
2023-04-15T14:16:01.921Z,4.65
2023-04-15T14:18:30.407Z,3.58
2023-04-15T14:20:57.634Z,2.50
2023-04-15T14:23:24.912Z,4.47
2023-04-15T14:37:31.284Z,4.25
2023-04-15T14:40:00.133Z,2.15
2023-04-15T14:42:27.528Z,3.25
2023-04-15T14:44:56.655Z,4.88
2023-04-15T14:50:06.279Z,3.40
2023-04-15T14:52:38.635Z,5.10
2023-04-15T14:55:10.500Z,3.20
2023-04-15T14:57:38.373Z,3.10
2023-04-15T15:00:07.277Z,4.13
2023-04-15T15:02:39.622Z,5.35
2023-04-15T15:05:08.305Z,1.98
2023-04-15T15:07:37.294Z,1.55
2023-04-15T15:12:32.056Z,2.15
2023-04-15T15:15:09.225Z,4.97
2023-04-15T15:17:47.428Z,2.22
2023-04-15T15:25:37.039Z,5.15
2023-04-15T15:28:04.573Z,4.53
2023-04-15T15:30:31.937Z,3.17
2023-04-15T15:32:59.255Z,6.65
2023-04-15T15:35:26.883Z,6.38
2023-04-15T15:37:54.990Z,4.85
2023-04-15T15:40:22.280Z,4.75
2023-04-15T15:42:50.901Z,3.42
2023-04-15T15:45:18.353Z,3.67
2023-04-15T15:47:45.779Z,4.32
2023-04-15T15:50:32.694Z,4.70
2023-04-15T15:52:59.982Z,3.33
2023-04-15T15:55:27.366Z,9.23
2023-04-15T15:57:56.457Z,3.40
2023-04-15T16:00:23.840Z,4.70
2023-04-15T16:05:25.406Z,6.80
2023-04-15T16:07:52.670Z,2.65
2023-04-15T16:10:19.953Z,3.60
2023-04-15T16:12:47.097Z,3.72
2023-04-15T16:15:14.593Z,4.22
2023-04-15T16:17:41.877Z,4.47
2023-04-15T16:20:09.298Z,4.80
2023-04-15T16:22:36.512Z,2.88
2023-04-15T16:25:03.923Z,7.45
2023-04-15T16:27:31.086Z,11.65
2023-04-15T16:29:58.418Z,4.47
2023-04-15T16:32:25.648Z,7.32
2023-04-15T16:34:53.528Z,8.43
2023-04-15T16:37:21.643Z,9.00
2023-04-15T16:39:49.062Z,5.85
2023-04-15T16:42:16.433Z,6.45
2023-04-15T16:44:43.774Z,6.88
2023-04-15T16:47:12.055Z,5.53
2023-04-15T16:49:39.386Z,9.85
2023-04-15T16:52:06.664Z,8.07
2023-04-15T16:54:35.054Z,13.00
2023-04-15T16:57:03.611Z,9.50
2023-04-15T16:59:30.793Z,2.85
2023-04-15T17:01:58.142Z,7.03
2023-04-15T17:04:28.035Z,3.40
2023-04-15T17:07:03.419Z,6.95
2023-04-15T17:09:30.789Z,7.03
2023-04-15T17:11:59.254Z,9.45
2023-04-15T17:14:26.445Z,5.80
2023-04-15T17:16:53.823Z,8.27
2023-04-15T17:19:21.102Z,5.85
2023-04-15T17:21:48.549Z,13.35
2023-04-15T17:24:16.798Z,4.15
2023-04-15T17:26:45.111Z,5.88
2023-04-15T17:29:14.358Z,5.15
2023-04-15T17:31:41.608Z,2.90
2023-04-15T17:34:09.981Z,7.72
2023-04-15T17:36:38.179Z,9.23
2023-04-15T17:39:07.684Z,7.93
2023-04-15T17:44:57.777Z,5.85
2023-04-15T17:47:24.984Z,8.20
2023-04-15T17:49:52.297Z,10.02
2023-04-15T17:52:19.661Z,7.88
2023-04-15T17:54:47.321Z,5.97
2023-04-15T18:02:23.211Z,6.03
2023-04-15T18:04:50.595Z,3.85
2023-04-15T18:07:18.015Z,7.20
2023-04-15T18:09:46.024Z,8.90
2023-04-15T18:12:13.438Z,7.47
2023-04-15T18:14:41.159Z,4.68
2023-04-15T18:17:08.392Z,3.63
2023-04-15T18:19:35.600Z,6.38
2023-04-15T18:22:04.031Z,7.38
2023-04-15T18:24:31.528Z,6.45
2023-04-15T18:26:59.182Z,3.72
2023-04-15T18:29:26.456Z,15.00
2023-04-15T18:31:53.838Z,9.18
2023-04-15T18:34:21.075Z,7.65
2023-04-15T18:36:48.274Z,8.63
2023-04-15T18:39:16.917Z,13.23
2023-04-15T18:41:44.213Z,6.13
2023-04-15T18:44:11.701Z,29.98
2023-04-15T18:46:41.264Z,11.75
2023-04-15T18:49:08.564Z,4.38
2023-04-15T18:51:36.974Z,7.50
2023-04-15T18:54:04.165Z,9.40
2023-04-15T18:56:31.850Z,18.55
2023-04-15T18:59:28.031Z,6.78
2023-04-15T19:01:46.167Z,7.55
2023-04-15T19:04:13.385Z,9.40
2023-04-15T19:06:40.812Z,8.68
2023-04-15T19:09:07.978Z,8.75
2023-04-15T19:11:35.186Z,5.03
2023-04-15T19:14:02.355Z,8.90
2023-04-15T19:16:29.611Z,3.28
2023-04-15T19:18:56.780Z,4.15
2023-04-15T19:21:23.974Z,3.35
2023-04-15T19:23:51.174Z,3.08
2023-04-15T19:26:18.432Z,6.50
2023-04-15T19:28:45.578Z,4.18
2023-04-15T19:31:12.766Z,8.07
2023-04-15T19:33:39.948Z,9.93
2023-04-15T19:36:48.715Z,4.32
2023-04-15T19:39:36.253Z,5.18
2023-04-15T19:42:04.829Z,2.13
2023-04-15T19:44:32.227Z,3.67
2023-04-15T19:46:59.624Z,16.20
2023-04-15T19:49:27.020Z,6.85
2023-04-15T19:51:54.236Z,5.63
2023-04-15T19:54:21.736Z,11.93
2023-04-15T19:57:31.706Z,26.48
2023-04-15T19:59:59.037Z,5.32
2023-04-15T20:02:26.531Z,5.60
2023-04-15T20:04:53.811Z,4.82
2023-04-15T20:07:21.245Z,5.57
2023-04-15T20:09:48.435Z,2.25
2023-04-15T20:12:50.904Z,5.82
2023-04-15T20:15:03.670Z,3.17
2023-04-15T20:17:33.654Z,5.55
2023-04-15T20:20:00.986Z,9.02
2023-04-15T20:22:28.132Z,3.60
2023-04-15T20:24:55.370Z,7.65
2023-04-15T20:27:22.620Z,6.70
2023-04-15T20:29:50.517Z,5.82
2023-04-15T20:32:20.812Z,10.02
2023-04-15T20:34:48.109Z,8.95
2023-04-15T20:37:15.424Z,4.75
2023-04-15T20:39:42.582Z,3.50
2023-04-15T20:42:10.652Z,6.03
2023-04-15T20:44:41.271Z,6.47
2023-04-15T20:47:08.872Z,10.05
2023-04-15T20:49:37.182Z,11.88
2023-04-15T20:52:05.093Z,3.90
2023-04-15T20:54:32.752Z,3.35
2023-04-15T20:57:00.026Z,4.85
2023-04-15T20:59:27.236Z,8.98
2023-04-15T21:01:56.844Z,9.07
2023-04-15T21:04:24.630Z,7.63
2023-04-15T21:06:55.098Z,13.85
2023-04-15T21:09:22.253Z,7.43
2023-04-15T21:11:59.680Z,6.35
2023-04-15T21:14:28.640Z,4.20
2023-04-15T21:16:57.197Z,4.10
2023-04-15T21:19:24.479Z,10.52
2023-04-15T21:21:51.641Z,11.60
2023-04-15T21:24:18.836Z,10.93
2023-04-15T21:26:46.013Z,4.95
2023-04-15T21:29:13.706Z,10.27
2023-04-15T21:31:41.270Z,7.97
2023-04-15T21:34:08.580Z,7.75
2023-04-15T21:36:35.821Z,7.88
2023-04-15T21:39:03.124Z,9.05
2023-04-15T21:41:31.099Z,7.70
2023-04-15T21:43:58.411Z,4.88
2023-04-15T21:46:32.847Z,9.65
2023-04-15T21:49:02.556Z,6.75
2023-04-15T21:52:11.634Z,5.22
2023-04-15T21:54:38.837Z,8.55
2023-04-15T21:57:05.999Z,7.38
2023-04-15T21:59:33.337Z,8.48
2023-04-15T22:02:00.822Z,7.15
2023-04-15T22:04:28.205Z,3.53
2023-04-15T22:06:59.636Z,7.28
2023-04-15T22:09:26.788Z,3.92
2023-04-15T22:11:53.937Z,1.85
2023-04-15T22:14:21.217Z,6.40
2023-04-15T22:16:48.657Z,4.18
2023-04-15T22:19:15.838Z,5.45
2023-04-15T22:21:43.037Z,2.22
2023-04-15T22:24:32.223Z,12.48
2023-04-15T22:26:58.999Z,9.32
2023-04-15T22:31:54.015Z,8.85
2023-04-15T22:34:21.888Z,4.57
2023-04-15T22:36:49.429Z,8.55
2023-04-15T22:39:16.580Z,6.97
2023-04-15T22:41:44.004Z,13.52
2023-04-15T22:44:11.121Z,4.22
2023-04-15T22:46:41.323Z,7.22
2023-04-15T22:49:09.282Z,3.47
2023-04-15T22:51:37.856Z,8.38
2023-04-15T22:54:05.151Z,5.68
2023-04-15T22:56:32.405Z,6.68
2023-04-15T22:58:59.553Z,10.40
2023-04-15T23:01:26.877Z,0.70
2023-04-15T23:03:56.718Z,2.53
2023-04-15T23:06:34.358Z,6.22
2023-04-15T23:09:01.616Z,7.72
2023-04-15T23:11:28.776Z,2.38
2023-04-15T23:13:56.591Z,4.63
2023-04-15T23:16:23.973Z,8.48
2023-04-15T23:18:51.221Z,9.25
2023-04-15T23:21:18.374Z,6.28
2023-04-15T23:23:45.730Z,8.80
2023-04-15T23:26:12.816Z,8.45
2023-04-15T23:28:40.219Z,12.65
2023-04-15T23:31:07.540Z,8.90
2023-04-15T23:33:34.670Z,8.20
2023-04-15T23:36:01.978Z,8.30
2023-04-15T23:38:29.178Z,6.18
2023-04-15T23:40:56.397Z,5.63
2023-04-15T23:43:23.712Z,5.85
2023-04-15T23:45:50.851Z,8.23
2023-04-15T23:48:18.203Z,7.00
2023-04-15T23:50:45.434Z,11.00
2023-04-15T23:53:13.700Z,6.30
2023-04-15T23:55:40.979Z,7.53
2023-04-15T23:58:08.133Z,8.35
